createdAt,value
2018-08-24T00:00:19.575Z,15.23
2018-08-24T00:02:47.949Z,16.33
2018-08-24T00:05:16.337Z,12.83
2018-08-24T00:07:44.697Z,11.57
2018-08-24T00:10:13.021Z,10.47
2018-08-24T00:12:41.392Z,11.03
2018-08-24T00:15:09.744Z,11.00
2018-08-24T00:17:38.101Z,13.20
2018-08-24T00:20:06.539Z,10.30
2018-08-24T00:22:34.910Z,14.70
2018-08-24T00:25:03.275Z,13.33
2018-08-24T00:27:31.592Z,15.97
2018-08-24T00:29:59.932Z,13.63
2018-08-24T00:32:28.313Z,14.03
2018-08-24T00:34:56.660Z,12.93
2018-08-24T00:37:25.005Z,13.37
2018-08-24T00:39:53.384Z,12.30
2018-08-24T00:42:21.700Z,12.17
2018-08-24T00:44:50.048Z,11.33
2018-08-24T00:47:18.412Z,12.90
2018-08-24T00:49:46.763Z,14.63
2018-08-24T00:52:15.071Z,12.60
2018-08-24T00:54:43.412Z,13.57
2018-08-24T00:57:11.739Z,14.50
2018-08-24T00:59:40.055Z,11.73
2018-08-24T01:02:08.448Z,21.47
2018-08-24T01:04:37.202Z,14.40
2018-08-24T01:07:12.614Z,14.43
2018-08-24T01:09:41.622Z,13.80
2018-08-24T01:12:11.777Z,14.00
2018-08-24T01:14:42.648Z,10.93
2018-08-24T01:18:17.120Z,15.57
2018-08-24T01:20:50.982Z,12.50
2018-08-24T01:23:22.701Z,12.87
2018-08-24T01:25:51.063Z,13.10
2018-08-24T01:28:20.035Z,13.73
2018-08-24T01:30:48.457Z,11.93
2018-08-24T01:33:17.552Z,18.47
2018-08-24T01:35:46.621Z,18.00
2018-08-24T01:38:14.947Z,11.10
2018-08-24T01:40:43.285Z,14.70
2018-08-24T01:43:11.820Z,13.47
2018-08-24T01:45:40.165Z,16.43
2018-08-24T01:48:09.236Z,15.03
2018-08-24T01:50:37.565Z,9.87
2018-08-24T01:53:06.088Z,12.23
2018-08-24T01:55:34.425Z,13.50
2018-08-24T01:58:02.779Z,13.00
2018-08-24T02:00:31.088Z,14.23
2018-08-24T02:02:59.424Z,12.37
2018-08-24T02:05:27.762Z,9.53
2018-08-24T02:07:56.147Z,10.40
2018-08-24T02:10:29.035Z,11.03
2018-08-24T02:13:02.940Z,12.13
2018-08-24T02:15:31.272Z,9.80
2018-08-24T02:18:05.009Z,10.10
2018-08-24T02:22:45.933Z,10.03
2018-08-24T02:25:14.269Z,11.17
2018-08-24T02:27:42.620Z,16.80
2018-08-24T02:30:10.956Z,10.70
2018-08-24T02:32:39.290Z,9.43
2018-08-24T02:35:08.741Z,9.80
2018-08-24T02:37:37.131Z,9.60
2018-08-24T03:02:14.502Z,14.00
2018-08-24T03:04:42.824Z,13.17
2018-08-24T03:07:11.196Z,11.80
2018-08-24T03:09:39.545Z,10.73
2018-08-24T03:12:07.913Z,13.87
2018-08-24T03:14:36.259Z,13.13
2018-08-24T03:17:10.046Z,14.57
2018-08-24T03:19:38.435Z,12.73
2018-08-24T03:22:06.887Z,17.40
2018-08-24T03:24:35.244Z,13.60
2018-08-24T03:27:03.617Z,13.07
2018-08-24T03:29:31.983Z,17.00
2018-08-24T03:32:00.389Z,13.87
2018-08-24T03:34:28.722Z,13.43
2018-08-24T03:36:57.176Z,11.93
2018-08-24T03:39:25.565Z,12.13
2018-08-24T03:41:53.903Z,11.07
2018-08-24T03:44:22.293Z,12.87
2018-08-24T03:46:50.609Z,18.60
2018-08-24T03:49:18.935Z,16.60
2018-08-24T03:51:47.283Z,11.80
2018-08-24T03:54:19.753Z,11.60
2018-08-24T03:56:54.263Z,11.73
2018-08-24T03:59:23.168Z,15.40
2018-08-24T04:01:51.956Z,13.70
2018-08-24T04:04:20.301Z,12.20
2018-08-24T04:06:48.827Z,11.77
2018-08-24T04:09:17.194Z,16.53
2018-08-24T04:11:45.937Z,17.97
2018-08-24T04:14:14.388Z,12.80
2018-08-24T04:16:48.193Z,12.55
2018-08-24T04:19:21.971Z,15.40
2018-08-24T04:21:50.400Z,14.47
2018-08-24T04:24:18.920Z,11.20
2018-08-24T04:26:47.323Z,13.90
2018-08-24T04:29:15.680Z,12.13
2018-08-24T04:31:44.016Z,11.40
2018-08-24T04:34:12.447Z,12.30
2018-08-24T04:36:40.859Z,12.05
2018-08-24T04:39:12.159Z,12.53
2018-08-24T04:41:41.369Z,12.00
2018-08-24T04:44:10.348Z,12.73
2018-08-24T04:46:38.745Z,14.45
2018-08-24T04:49:07.651Z,12.13
2018-08-24T04:51:36.011Z,13.03
2018-08-24T04:54:04.393Z,12.18
2018-08-24T04:56:32.880Z,12.45
2018-08-24T04:59:01.686Z,13.90
2018-08-24T05:01:30.082Z,13.40
2018-08-24T05:03:59.651Z,13.97
2018-08-24T05:06:28.078Z,11.73
2018-08-24T05:08:56.409Z,22.25
2018-08-24T05:11:24.773Z,19.23
2018-08-24T05:13:53.126Z,15.45
2018-08-24T05:16:21.460Z,13.40
2018-08-24T05:18:49.801Z,12.93
2018-08-24T05:21:18.234Z,15.60
2018-08-24T05:23:46.540Z,12.20
2018-08-24T05:26:14.864Z,13.20
2018-08-24T05:28:43.218Z,11.75
2018-08-24T05:31:11.584Z,14.30
2018-08-24T05:33:39.975Z,12.45
2018-08-24T05:36:08.352Z,10.15
2018-08-24T05:38:36.717Z,10.98
2018-08-24T05:41:05.113Z,12.90
2018-08-24T05:43:33.596Z,12.13
2018-08-24T05:46:01.978Z,10.45
2018-08-24T05:48:30.313Z,9.78
2018-08-24T05:50:58.697Z,9.30
2018-08-24T05:53:27.111Z,9.88
2018-08-24T05:55:55.461Z,8.08
2018-08-24T05:58:23.872Z,10.38
2018-08-24T06:00:52.225Z,8.78
2018-08-24T06:03:20.576Z,7.03
2018-08-24T06:05:54.267Z,7.20
2018-08-24T06:08:22.609Z,6.80
2018-08-24T06:10:50.995Z,7.50
2018-08-24T06:13:19.879Z,8.38
2018-08-24T06:15:49.668Z,7.92
2018-08-24T06:18:18.036Z,8.65
2018-08-24T06:20:46.382Z,10.90
2018-08-24T06:23:15.242Z,12.63
2018-08-24T06:25:43.644Z,12.45
2018-08-24T06:28:12.065Z,9.70
2018-08-24T06:30:40.430Z,9.40
2018-08-24T06:33:08.796Z,9.18
2018-08-24T06:35:37.175Z,8.45
2018-08-24T06:38:05.634Z,9.30
2018-08-24T06:40:34.031Z,9.30
2018-08-24T06:43:02.407Z,8.97
2018-08-24T06:45:30.816Z,7.90
2018-08-24T06:47:59.179Z,7.87
2018-08-24T06:50:27.573Z,11.23
2018-08-24T06:52:55.963Z,8.07
2018-08-24T06:55:24.312Z,11.00
2018-08-24T06:57:52.715Z,6.70
2018-08-24T07:00:26.605Z,7.40
2018-08-24T07:02:55.039Z,11.03
2018-08-24T07:05:23.450Z,7.03
2018-08-24T07:07:51.826Z,8.03
2018-08-24T07:10:20.195Z,8.10
2018-08-24T07:12:48.608Z,12.83
2018-08-24T07:15:16.940Z,8.40
2018-08-24T07:17:50.742Z,6.67
2018-08-24T07:20:19.157Z,10.10
2018-08-24T07:22:47.630Z,7.47
2018-08-24T07:25:16.314Z,24.73
2018-08-24T07:27:44.673Z,6.93
2018-08-24T07:30:13.078Z,8.27
2018-08-24T07:32:41.431Z,7.27
2018-08-24T07:35:09.792Z,7.00
2018-08-24T07:37:38.175Z,5.77
2018-08-24T07:40:06.586Z,7.90
2018-08-24T07:42:34.977Z,6.37
2018-08-24T07:45:03.424Z,5.23
2018-08-24T07:47:31.836Z,4.87
2018-08-24T07:50:00.193Z,19.07
2018-08-24T07:52:28.596Z,8.93
2018-08-24T07:54:56.955Z,5.93
2018-08-24T07:57:25.344Z,5.40
2018-08-24T07:59:54.364Z,6.93
2018-08-24T08:02:28.067Z,6.93
2018-08-24T08:04:56.501Z,8.30
2018-08-24T08:07:24.850Z,6.27
2018-08-24T08:09:53.198Z,6.87
2018-08-24T08:12:21.602Z,5.27
2018-08-24T08:14:55.413Z,5.67
2018-08-24T08:17:23.767Z,6.13
2018-08-24T08:19:52.160Z,5.67
2018-08-24T08:22:20.532Z,9.13
2018-08-24T08:24:49.070Z,5.90
2018-08-24T08:27:17.416Z,6.23
2018-08-24T08:29:51.334Z,9.83
2018-08-24T08:32:19.695Z,5.60
2018-08-24T08:34:53.231Z,5.70
2018-08-24T08:37:22.723Z,7.40
2018-08-24T08:39:51.948Z,6.97
2018-08-24T08:42:20.825Z,36.53
2018-08-24T08:44:49.252Z,6.40
2018-08-24T08:47:17.652Z,7.30
2018-08-24T08:49:46.040Z,5.67
2018-08-24T08:52:14.420Z,5.37
2018-08-24T08:54:42.832Z,6.63
2018-08-24T08:57:11.213Z,6.53
2018-08-24T08:59:39.541Z,6.33
2018-08-24T09:02:09.593Z,6.73
2018-08-24T09:04:38.601Z,7.13
2018-08-24T09:07:07.111Z,6.70
2018-08-24T09:09:35.532Z,8.53
2018-08-24T09:12:03.952Z,8.13
2018-08-24T09:14:32.334Z,8.37
2018-08-24T09:17:04.886Z,12.83
2018-08-24T09:19:38.614Z,14.20
2018-08-24T09:22:12.346Z,12.70
2018-08-24T09:24:46.013Z,12.37
2018-08-24T09:27:19.702Z,8.83
2018-08-24T09:29:48.077Z,14.30
2018-08-24T09:32:16.518Z,11.87
2018-08-24T09:34:44.954Z,10.90
2018-08-24T09:37:18.600Z,10.20
2018-08-24T09:39:46.956Z,8.23
2018-08-24T09:42:15.316Z,13.70
2018-08-24T09:44:43.698Z,9.53
2018-08-24T09:47:17.478Z,10.77
2018-08-24T09:49:45.813Z,7.57
2018-08-24T09:52:19.517Z,8.73
2018-08-24T09:54:47.880Z,9.93
2018-08-24T09:57:16.209Z,11.70
2018-08-24T09:59:44.584Z,11.10
2018-08-24T10:02:18.172Z,14.70
2018-08-24T10:04:51.945Z,11.63
2018-08-24T10:07:24.091Z,12.80
2018-08-24T10:09:52.492Z,11.60
2018-08-24T10:12:20.841Z,13.10
2018-08-24T10:14:49.252Z,14.63
2018-08-24T10:17:17.625Z,17.10
2018-08-24T10:19:45.990Z,16.37
2018-08-24T10:22:14.374Z,14.57
2018-08-24T10:24:42.732Z,20.13
2018-08-24T10:27:11.129Z,17.03
2018-08-24T10:29:39.502Z,18.97
2018-08-24T10:32:07.877Z,24.40
2018-08-24T10:34:36.220Z,19.17
2018-08-24T10:37:04.869Z,19.07
2018-08-24T10:39:33.206Z,20.33
2018-08-24T10:42:01.633Z,19.20
2018-08-24T10:44:29.972Z,21.70
2018-08-24T10:46:58.349Z,19.60
2018-08-24T10:49:26.786Z,19.53
2018-08-24T10:51:55.123Z,20.03
2018-08-24T10:54:23.453Z,17.87
2018-08-24T10:56:51.820Z,18.50
2018-08-24T10:59:20.222Z,18.90
2018-08-24T11:01:48.662Z,22.30
2018-08-24T11:04:17.077Z,25.30
2018-08-24T11:06:45.481Z,19.83
2018-08-24T11:09:13.878Z,16.57
2018-08-24T11:11:42.268Z,17.55
2018-08-24T11:14:10.620Z,17.00
2018-08-24T11:16:39.048Z,17.13
2018-08-24T11:19:07.448Z,15.03
2018-08-24T11:21:35.879Z,15.03
2018-08-24T11:24:04.798Z,13.80
2018-08-24T11:26:33.246Z,14.68
2018-08-24T11:29:01.628Z,15.00
2018-08-24T11:31:30.020Z,13.60
2018-08-24T11:33:58.425Z,12.97
2018-08-24T11:36:26.764Z,13.83
2018-08-24T11:38:55.142Z,16.63
2018-08-24T11:41:23.481Z,12.27
2018-08-24T11:43:52.410Z,13.23
2018-08-24T11:46:20.815Z,10.50
2018-08-24T11:48:49.312Z,11.10
2018-08-24T11:51:17.717Z,12.50
2018-08-24T11:53:46.143Z,11.00
2018-08-24T11:56:14.489Z,11.33
2018-08-24T11:58:42.884Z,12.53
2018-08-24T12:01:11.284Z,11.30
2018-08-24T12:03:39.635Z,13.83
2018-08-24T12:06:08.022Z,9.50
2018-08-24T12:08:36.400Z,10.00
2018-08-24T12:11:04.716Z,9.90
2018-08-24T12:13:33.083Z,9.57
2018-08-24T12:16:01.419Z,9.33
2018-08-24T12:18:30.039Z,10.97
2018-08-24T12:20:58.313Z,9.67
2018-08-24T12:23:26.669Z,10.60
2018-08-24T12:25:55.077Z,13.03
2018-08-24T12:28:23.548Z,14.70
2018-08-24T12:30:52.008Z,16.57
2018-08-24T12:33:20.336Z,11.27
2018-08-24T12:35:48.675Z,12.00
2018-08-24T12:38:17.067Z,13.00
2018-08-24T12:40:45.457Z,10.73
2018-08-24T12:43:13.814Z,14.43
2018-08-24T12:45:43.028Z,12.50
2018-08-24T12:48:11.393Z,11.50
2018-08-24T12:50:39.864Z,12.23
2018-08-24T12:53:08.233Z,13.40
2018-08-24T12:55:36.644Z,11.30
2018-08-24T12:58:05.070Z,10.90
2018-08-24T13:00:33.461Z,11.67
2018-08-24T13:03:01.821Z,11.77
2018-08-24T13:05:30.229Z,11.07
2018-08-24T13:07:58.618Z,10.60
2018-08-24T13:10:27.002Z,11.83
2018-08-24T13:12:55.371Z,9.93
2018-08-24T13:15:23.908Z,10.40
2018-08-24T13:17:52.157Z,13.50
2018-08-24T13:20:20.559Z,10.83
2018-08-24T13:22:48.972Z,17.27
2018-08-24T13:25:17.325Z,13.03
2018-08-24T13:27:45.679Z,12.50
2018-08-24T13:30:14.079Z,9.97
2018-08-24T13:32:42.445Z,10.90
2018-08-24T13:35:10.895Z,9.43
2018-08-24T13:37:39.288Z,8.97
2018-08-24T13:40:07.668Z,10.50
2018-08-24T13:42:36.056Z,16.17
2018-08-24T13:45:04.445Z,11.60
2018-08-24T13:47:32.869Z,15.90
2018-08-24T13:50:01.153Z,9.70
2018-08-24T13:52:29.616Z,9.97
2018-08-24T13:54:58.015Z,9.67
2018-08-24T13:57:26.451Z,8.40
2018-08-24T13:59:54.914Z,9.20
2018-08-24T14:02:23.321Z,8.87
2018-08-24T14:04:51.696Z,7.83
2018-08-24T14:07:20.138Z,8.30
2018-08-24T14:09:48.534Z,8.63
2018-08-24T14:12:16.946Z,8.77
2018-08-24T14:14:45.308Z,8.70
2018-08-24T14:17:13.636Z,7.77
2018-08-24T14:19:41.999Z,8.20
2018-08-24T14:22:10.426Z,11.00
2018-08-24T14:24:38.766Z,7.50
2018-08-24T14:27:07.280Z,9.23
2018-08-24T14:29:35.664Z,9.10
2018-08-24T14:32:04.140Z,7.47
2018-08-24T14:34:32.646Z,6.73
2018-08-24T14:37:01.956Z,6.53
2018-08-24T14:39:30.324Z,6.80
2018-08-24T14:41:58.752Z,7.00
2018-08-24T14:44:27.071Z,7.30
2018-08-24T14:46:55.501Z,6.13
2018-08-24T14:49:23.891Z,6.63
2018-08-24T14:51:52.262Z,5.83
2018-08-24T14:54:20.663Z,5.83
2018-08-24T14:56:49.010Z,9.30
2018-08-24T14:59:17.416Z,6.07
2018-08-24T15:01:45.821Z,6.20
2018-08-24T15:04:14.192Z,5.63
2018-08-24T15:06:42.577Z,5.90
2018-08-24T15:09:11.816Z,5.50
2018-08-24T15:11:40.515Z,8.40
2018-08-24T15:14:09.400Z,6.07
2018-08-24T15:16:37.887Z,6.10
2018-08-24T15:19:06.472Z,9.40
2018-08-24T15:21:34.937Z,6.83
2018-08-24T15:24:03.284Z,7.60
2018-08-24T15:26:31.690Z,6.43
2018-08-24T15:29:00.065Z,6.70
2018-08-24T15:31:28.441Z,6.00
2018-08-24T15:33:56.853Z,7.00
2018-08-24T15:36:25.231Z,9.67
2018-08-24T15:38:53.575Z,7.03
2018-08-24T15:41:21.956Z,7.77
2018-08-24T15:43:50.360Z,8.40
2018-08-24T15:46:18.817Z,6.73
2018-08-24T15:48:47.129Z,9.33
2018-08-24T15:51:15.572Z,8.70
2018-08-24T15:53:43.907Z,6.83
2018-08-24T15:56:12.344Z,7.90
2018-08-24T15:58:40.808Z,6.27
2018-08-24T16:01:09.221Z,7.00
2018-08-24T16:03:37.591Z,8.13
2018-08-24T16:06:05.967Z,7.93
2018-08-24T16:08:34.318Z,6.90
2018-08-24T16:11:02.712Z,8.63
2018-08-24T16:13:31.088Z,9.73
2018-08-24T16:15:59.457Z,6.83
2018-08-24T16:18:27.787Z,7.53
2018-08-24T16:20:56.121Z,7.67
2018-08-24T16:23:24.541Z,7.10
2018-08-24T16:25:52.891Z,6.00
2018-08-24T16:28:21.306Z,8.10
2018-08-24T16:30:49.652Z,7.43
2018-08-24T16:33:18.539Z,6.90
2018-08-24T16:35:46.935Z,6.70
2018-08-24T16:38:15.896Z,6.53
2018-08-24T16:40:44.310Z,7.40
2018-08-24T16:43:13.100Z,5.33
2018-08-24T16:45:41.464Z,7.67
2018-08-24T16:48:10.692Z,7.70
2018-08-24T16:50:39.235Z,7.83
2018-08-24T16:53:07.717Z,10.90
2018-08-24T16:55:36.192Z,10.10
2018-08-24T16:58:04.672Z,7.77
2018-08-24T17:00:33.103Z,8.87
2018-08-24T17:03:01.498Z,5.70
2018-08-24T17:05:29.885Z,9.77
2018-08-24T17:07:58.243Z,8.00
2018-08-24T17:10:26.576Z,6.10
2018-08-24T17:12:55.024Z,5.70
2018-08-24T17:15:23.366Z,6.50
2018-08-24T17:17:51.720Z,7.60
2018-08-24T17:20:20.083Z,10.47
2018-08-24T17:22:48.429Z,10.17
2018-08-24T17:25:16.832Z,6.30
2018-08-24T17:27:45.214Z,12.70
2018-08-24T17:30:13.584Z,11.83
2018-08-24T17:32:42.024Z,10.30
2018-08-24T17:35:10.378Z,6.63
2018-08-24T17:37:38.874Z,8.33
2018-08-24T17:40:07.287Z,10.47
2018-08-24T17:42:35.721Z,10.57
2018-08-24T17:45:04.232Z,7.13
2018-08-24T17:47:32.695Z,11.40
2018-08-24T17:50:01.350Z,10.20
2018-08-24T17:52:30.046Z,9.63
2018-08-24T17:54:58.733Z,12.20
2018-08-24T17:57:27.320Z,12.13
2018-08-24T17:59:55.679Z,11.37
2018-08-24T18:02:24.076Z,10.80
2018-08-24T18:04:52.553Z,10.40
2018-08-24T18:07:21.334Z,10.27
2018-08-24T18:09:50.011Z,8.50
2018-08-24T18:12:18.765Z,11.27
2018-08-24T18:14:47.436Z,11.80
2018-08-24T18:17:15.772Z,8.37
2018-08-24T18:19:44.224Z,9.87
2018-08-24T18:22:12.750Z,11.93
2018-08-24T18:24:41.442Z,8.63
2018-08-24T18:27:09.974Z,8.03
2018-08-24T18:29:38.813Z,11.27
2018-08-24T18:32:07.386Z,10.60
2018-08-24T18:34:35.775Z,12.80
2018-08-24T18:37:04.155Z,13.70
2018-08-24T18:39:32.714Z,11.23
2018-08-24T18:42:01.291Z,10.10
2018-08-24T18:44:30.047Z,11.60
2018-08-24T18:46:58.653Z,13.60
2018-08-24T18:49:27.098Z,8.40
2018-08-24T18:51:55.512Z,12.50
2018-08-24T18:54:23.874Z,10.43
2018-08-24T18:56:52.351Z,9.70
2018-08-24T18:59:20.924Z,8.67
2018-08-24T19:01:49.684Z,14.27
2018-08-24T19:04:18.047Z,12.47
2018-08-24T19:06:46.792Z,10.20
2018-08-24T19:09:15.156Z,8.80
2018-08-24T19:11:49.013Z,8.57
2018-08-24T19:14:17.405Z,10.20
2018-08-24T19:16:45.889Z,8.50
2018-08-24T19:19:19.700Z,7.73
2018-08-24T19:21:49.192Z,9.40
2018-08-24T19:24:17.627Z,11.83
2018-08-24T19:26:45.958Z,8.63
2018-08-24T19:29:19.738Z,11.67
2018-08-24T19:31:48.133Z,10.50
2018-08-24T19:34:16.616Z,12.23
2018-08-24T19:36:45.053Z,10.00
2018-08-24T19:39:14.747Z,8.27
2018-08-24T19:41:48.445Z,13.13
2018-08-24T19:44:16.831Z,9.63
2018-08-24T19:46:45.740Z,11.40
2018-08-24T19:49:14.333Z,11.63
2018-08-24T19:51:42.835Z,11.17
2018-08-24T19:54:11.408Z,14.13
2018-08-24T19:56:40.071Z,10.93
2018-08-24T19:59:11.704Z,10.30
2018-08-24T20:01:40.080Z,9.23
2018-08-24T20:04:08.891Z,11.30
2018-08-24T20:06:42.604Z,9.03
2018-08-24T20:09:16.989Z,8.50
2018-08-24T20:11:52.879Z,12.30
2018-08-24T20:14:26.744Z,10.83
2018-08-24T20:17:00.405Z,9.63
2018-08-24T20:19:29.124Z,10.33
2018-08-24T20:21:57.502Z,17.27
2018-08-24T20:24:26.000Z,6.10
2018-08-24T20:26:54.297Z,8.07
2018-08-24T20:29:22.653Z,6.70
2018-08-24T20:31:51.023Z,9.83
2018-08-24T20:34:20.038Z,8.57
2018-08-24T20:36:49.289Z,12.47
2018-08-24T20:39:17.733Z,8.93
2018-08-24T20:41:46.135Z,8.83
2018-08-24T20:44:14.516Z,8.43
2018-08-24T20:46:42.966Z,7.13
2018-08-24T20:49:11.376Z,11.17
2018-08-24T20:51:39.729Z,5.60
2018-08-24T20:54:08.156Z,6.27
2018-08-24T20:56:36.561Z,10.30
2018-08-24T20:59:05.065Z,6.13
2018-08-24T21:01:33.437Z,8.63
2018-08-24T21:04:02.187Z,8.37
2018-08-24T21:06:30.500Z,5.10
2018-08-24T21:08:58.920Z,5.20
2018-08-24T21:11:27.253Z,5.43
2018-08-24T21:13:55.648Z,9.07
2018-08-24T21:16:24.124Z,4.63
2018-08-24T21:18:52.605Z,10.30
2018-08-24T21:21:20.962Z,7.73
2018-08-24T21:23:49.339Z,4.47
2018-08-24T21:26:17.709Z,7.93
2018-08-24T21:28:46.153Z,15.00
2018-08-24T21:31:14.538Z,5.97
2018-08-24T21:33:42.936Z,9.33
2018-08-24T21:36:11.348Z,3.80
2018-08-24T21:38:39.775Z,6.53
2018-08-24T21:41:08.148Z,4.30
2018-08-24T21:43:36.551Z,5.47
2018-08-24T21:46:04.929Z,6.30
2018-08-24T21:48:33.341Z,9.93
2018-08-24T21:51:01.734Z,5.17
2018-08-24T21:53:30.100Z,5.73
2018-08-24T21:55:58.472Z,6.83
2018-08-24T21:58:26.824Z,13.40
2018-08-24T22:00:55.199Z,4.80
2018-08-24T22:03:23.564Z,4.53
2018-08-24T22:05:51.959Z,11.83
2018-08-24T22:08:20.352Z,5.60
2018-08-24T22:10:48.700Z,7.03
2018-08-24T22:13:17.126Z,7.30
2018-08-24T22:15:45.460Z,8.33
2018-08-24T22:18:13.852Z,3.40
2018-08-24T22:20:42.236Z,5.97
2018-08-24T22:23:10.659Z,3.63
2018-08-24T22:25:39.028Z,9.23
2018-08-24T22:28:07.393Z,5.70
2018-08-24T22:30:35.797Z,8.37
2018-08-24T22:33:04.191Z,3.80
2018-08-24T22:35:32.545Z,6.20
2018-08-24T22:38:00.860Z,4.00
2018-08-24T22:40:29.224Z,5.33
2018-08-24T22:42:57.641Z,7.60
2018-08-24T22:45:26.083Z,6.73
2018-08-24T22:47:54.544Z,6.40
2018-08-24T22:50:23.060Z,6.10
2018-08-24T22:52:51.439Z,13.33
2018-08-24T22:55:19.841Z,6.33
2018-08-24T22:57:48.179Z,4.93
2018-08-24T23:00:16.560Z,4.27
2018-08-24T23:02:44.868Z,5.03
2018-08-24T23:05:13.204Z,8.60
2018-08-24T23:07:41.580Z,4.03
2018-08-24T23:10:09.909Z,7.30
2018-08-24T23:12:38.274Z,8.07
2018-08-24T23:15:06.810Z,7.30
2018-08-24T23:17:35.161Z,5.97
2018-08-24T23:20:03.603Z,5.30
2018-08-24T23:22:31.984Z,4.63
2018-08-24T23:25:00.348Z,3.93
2018-08-24T23:27:28.694Z,8.80
2018-08-24T23:29:57.111Z,6.03
2018-08-24T23:32:25.440Z,9.83
2018-08-24T23:34:53.770Z,4.37
2018-08-24T23:37:22.095Z,7.03
2018-08-24T23:39:50.465Z,4.50
2018-08-24T23:42:18.792Z,5.23
2018-08-24T23:44:47.176Z,5.43
2018-08-24T23:47:15.500Z,4.57
2018-08-24T23:49:43.835Z,11.20
2018-08-24T23:52:12.247Z,8.93
2018-08-24T23:54:40.740Z,6.63
2018-08-24T23:57:09.120Z,7.20
2018-08-24T23:59:37.473Z,4.93
